sensor_id;sensor_type;location;lat;lon;timestamp;P1;durP1;ratioP1;P2;durP2;ratioP2
44276;SDS011;29973;43.742;1.236;2023-05-10T00:01:40;30.55;;;5.50;;
44276;SDS011;29973;43.742;1.236;2023-05-10T00:04:05;21.40;;;4.95;;
44276;SDS011;29973;43.742;1.236;2023-05-10T00:06:31;22.13;;;4.63;;
44276;SDS011;29973;43.742;1.236;2023-05-10T00:08:57;31.42;;;5.22;;
44276;SDS011;29973;43.742;1.236;2023-05-10T00:11:23;37.45;;;5.43;;
44276;SDS011;29973;43.742;1.236;2023-05-10T00:13:49;32.03;;;5.78;;
44276;SDS011;29973;43.742;1.236;2023-05-10T00:16:14;34.22;;;6.40;;
44276;SDS011;29973;43.742;1.236;2023-05-10T00:18:40;26.42;;;5.07;;
44276;SDS011;29973;43.742;1.236;2023-05-10T00:21:06;42.97;;;6.47;;
44276;SDS011;29973;43.742;1.236;2023-05-10T00:23:31;28.23;;;6.03;;
44276;SDS011;29973;43.742;1.236;2023-05-10T00:25:57;38.60;;;6.43;;
44276;SDS011;29973;43.742;1.236;2023-05-10T00:28:23;39.58;;;6.20;;
44276;SDS011;29973;43.742;1.236;2023-05-10T00:30:49;34.55;;;5.85;;
44276;SDS011;29973;43.742;1.236;2023-05-10T00:33:14;45.13;;;7.15;;
44276;SDS011;29973;43.742;1.236;2023-05-10T00:35:40;37.15;;;6.40;;
44276;SDS011;29973;43.742;1.236;2023-05-10T00:38:06;31.35;;;7.13;;
44276;SDS011;29973;43.742;1.236;2023-05-10T00:40:32;39.10;;;6.63;;
44276;SDS011;29973;43.742;1.236;2023-05-10T00:42:57;35.40;;;6.45;;
44276;SDS011;29973;43.742;1.236;2023-05-10T00:45:25;33.33;;;6.85;;
44276;SDS011;29973;43.742;1.236;2023-05-10T00:47:52;28.15;;;6.28;;
44276;SDS011;29973;43.742;1.236;2023-05-10T00:50:20;39.13;;;5.55;;
44276;SDS011;29973;43.742;1.236;2023-05-10T00:52:49;26.67;;;5.93;;
44276;SDS011;29973;43.742;1.236;2023-05-10T00:55:15;31.77;;;6.15;;
44276;SDS011;29973;43.742;1.236;2023-05-10T00:57:41;32.58;;;6.38;;
44276;SDS011;29973;43.742;1.236;2023-05-10T01:00:07;32.42;;;6.60;;
44276;SDS011;29973;43.742;1.236;2023-05-10T01:02:33;41.53;;;6.95;;
44276;SDS011;29973;43.742;1.236;2023-05-10T01:05:00;39.97;;;6.15;;
44276;SDS011;29973;43.742;1.236;2023-05-10T01:07:28;41.63;;;7.25;;
44276;SDS011;29973;43.742;1.236;2023-05-10T01:09:55;41.15;;;7.07;;
44276;SDS011;29973;43.742;1.236;2023-05-10T01:12:21;42.20;;;6.20;;
44276;SDS011;29973;43.742;1.236;2023-05-10T01:14:47;31.83;;;6.43;;
44276;SDS011;29973;43.742;1.236;2023-05-10T01:17:13;38.28;;;6.20;;
44276;SDS011;29973;43.742;1.236;2023-05-10T01:19:40;35.70;;;6.05;;
44276;SDS011;29973;43.742;1.236;2023-05-10T01:27:47;32.72;;;6.53;;
44276;SDS011;29973;43.742;1.236;2023-05-10T01:36:20;40.97;;;6.60;;
44276;SDS011;29973;43.742;1.236;2023-05-10T01:44:41;36.25;;;5.63;;
44276;SDS011;29973;43.742;1.236;2023-05-10T01:47:14;35.00;;;5.32;;
44276;SDS011;29973;43.742;1.236;2023-05-10T01:49:47;33.78;;;6.15;;
44276;SDS011;29973;43.742;1.236;2023-05-10T01:52:16;32.33;;;7.10;;
44276;SDS011;29973;43.742;1.236;2023-05-10T01:54:55;25.35;;;4.93;;
44276;SDS011;29973;43.742;1.236;2023-05-10T01:57:27;29.05;;;5.15;;
44276;SDS011;29973;43.742;1.236;2023-05-10T01:59:59;48.67;;;6.00;;
44276;SDS011;29973;43.742;1.236;2023-05-10T02:02:28;25.92;;;5.45;;
44276;SDS011;29973;43.742;1.236;2023-05-10T02:04:58;35.17;;;4.90;;
44276;SDS011;29973;43.742;1.236;2023-05-10T02:07:24;32.45;;;5.68;;
44276;SDS011;29973;43.742;1.236;2023-05-10T02:09:53;30.80;;;4.75;;
44276;SDS011;29973;43.742;1.236;2023-05-10T02:12:20;35.67;;;6.03;;
44276;SDS011;29973;43.742;1.236;2023-05-10T02:14:49;37.83;;;5.57;;
44276;SDS011;29973;43.742;1.236;2023-05-10T02:17:17;39.22;;;5.15;;
44276;SDS011;29973;43.742;1.236;2023-05-10T02:19:44;35.00;;;5.88;;
44276;SDS011;29973;43.742;1.236;2023-05-10T02:22:12;46.42;;;6.75;;
44276;SDS011;29973;43.742;1.236;2023-05-10T02:24:38;33.15;;;5.28;;
44276;SDS011;29973;43.742;1.236;2023-05-10T02:27:05;33.45;;;4.82;;
44276;SDS011;29973;43.742;1.236;2023-05-10T02:29:32;37.08;;;6.32;;
44276;SDS011;29973;43.742;1.236;2023-05-10T02:31:59;28.67;;;4.82;;
44276;SDS011;29973;43.742;1.236;2023-05-10T02:34:26;29.10;;;4.43;;
44276;SDS011;29973;43.742;1.236;2023-05-10T02:36:53;28.10;;;5.85;;
44276;SDS011;29973;43.742;1.236;2023-05-10T02:39:20;20.10;;;4.28;;
44276;SDS011;29973;43.742;1.236;2023-05-10T02:41:48;19.63;;;4.45;;
44276;SDS011;29973;43.742;1.236;2023-05-10T02:44:16;20.08;;;3.78;;
44276;SDS011;29973;43.742;1.236;2023-05-10T02:46:44;17.88;;;3.55;;
44276;SDS011;29973;43.742;1.236;2023-05-10T02:49:10;26.42;;;3.95;;
44276;SDS011;29973;43.742;1.236;2023-05-10T02:51:37;19.88;;;3.47;;
44276;SDS011;29973;43.742;1.236;2023-05-10T02:54:22;14.82;;;3.55;;
44276;SDS011;29973;43.742;1.236;2023-05-10T02:57:02;20.67;;;4.38;;
44276;SDS011;29973;43.742;1.236;2023-05-10T02:59:30;18.70;;;3.30;;
44276;SDS011;29973;43.742;1.236;2023-05-10T03:01:57;23.98;;;4.55;;
44276;SDS011;29973;43.742;1.236;2023-05-10T03:04:25;27.90;;;3.55;;
44276;SDS011;29973;43.742;1.236;2023-05-10T03:06:51;20.52;;;3.65;;
44276;SDS011;29973;43.742;1.236;2023-05-10T03:09:17;31.45;;;4.20;;
44276;SDS011;29973;43.742;1.236;2023-05-10T03:14:42;19.77;;;3.92;;
44276;SDS011;29973;43.742;1.236;2023-05-10T03:20:04;22.88;;;4.05;;
44276;SDS011;29973;43.742;1.236;2023-05-10T03:22:40;25.88;;;4.65;;
44276;SDS011;29973;43.742;1.236;2023-05-10T03:25:12;24.02;;;4.95;;
44276;SDS011;29973;43.742;1.236;2023-05-10T03:27:41;23.50;;;4.15;;
44276;SDS011;29973;43.742;1.236;2023-05-10T03:30:10;27.67;;;4.65;;
44276;SDS011;29973;43.742;1.236;2023-05-10T03:32:37;27.30;;;4.18;;
44276;SDS011;29973;43.742;1.236;2023-05-10T03:35:09;21.70;;;4.70;;
44276;SDS011;29973;43.742;1.236;2023-05-10T03:37:36;27.85;;;5.00;;
44276;SDS011;29973;43.742;1.236;2023-05-10T03:40:02;18.83;;;4.25;;
44276;SDS011;29973;43.742;1.236;2023-05-10T03:42:28;33.00;;;4.97;;
44276;SDS011;29973;43.742;1.236;2023-05-10T03:44:54;22.58;;;4.25;;
44276;SDS011;29973;43.742;1.236;2023-05-10T03:47:20;25.63;;;4.70;;
44276;SDS011;29973;43.742;1.236;2023-05-10T03:49:46;26.10;;;4.18;;
44276;SDS011;29973;43.742;1.236;2023-05-10T03:52:11;19.52;;;4.00;;
44276;SDS011;29973;43.742;1.236;2023-05-10T03:54:37;21.92;;;4.32;;
44276;SDS011;29973;43.742;1.236;2023-05-10T03:57:03;33.10;;;5.07;;
44276;SDS011;29973;43.742;1.236;2023-05-10T03:59:29;27.42;;;5.03;;
44276;SDS011;29973;43.742;1.236;2023-05-10T04:01:55;32.50;;;4.18;;
44276;SDS011;29973;43.742;1.236;2023-05-10T04:04:21;28.15;;;4.80;;
44276;SDS011;29973;43.742;1.236;2023-05-10T04:06:48;18.95;;;3.63;;
44276;SDS011;29973;43.742;1.236;2023-05-10T04:09:14;27.58;;;4.07;;
44276;SDS011;29973;43.742;1.236;2023-05-10T04:11:40;20.85;;;4.10;;
44276;SDS011;29973;43.742;1.236;2023-05-10T04:14:05;20.65;;;3.97;;
44276;SDS011;29973;43.742;1.236;2023-05-10T04:16:31;29.23;;;4.72;;
44276;SDS011;29973;43.742;1.236;2023-05-10T04:18:57;19.23;;;4.15;;
44276;SDS011;29973;43.742;1.236;2023-05-10T04:21:23;26.08;;;3.92;;
44276;SDS011;29973;43.742;1.236;2023-05-10T04:23:48;27.50;;;5.25;;
44276;SDS011;29973;43.742;1.236;2023-05-10T04:26:14;26.98;;;4.53;;
44276;SDS011;29973;43.742;1.236;2023-05-10T04:28:40;27.25;;;4.47;;
44276;SDS011;29973;43.742;1.236;2023-05-10T04:31:06;25.52;;;4.80;;
44276;SDS011;29973;43.742;1.236;2023-05-10T04:33:33;39.58;;;4.65;;
44276;SDS011;29973;43.742;1.236;2023-05-10T04:35:59;31.35;;;4.18;;
44276;SDS011;29973;43.742;1.236;2023-05-10T04:38:25;38.00;;;4.68;;
44276;SDS011;29973;43.742;1.236;2023-05-10T04:40:52;21.33;;;5.00;;
44276;SDS011;29973;43.742;1.236;2023-05-10T04:43:28;47.60;;;5.38;;
44276;SDS011;29973;43.742;1.236;2023-05-10T04:45:55;34.08;;;5.13;;
44276;SDS011;29973;43.742;1.236;2023-05-10T04:48:22;32.30;;;5.28;;
44276;SDS011;29973;43.742;1.236;2023-05-10T04:50:47;26.92;;;5.10;;
44276;SDS011;29973;43.742;1.236;2023-05-10T04:53:13;32.58;;;5.45;;
44276;SDS011;29973;43.742;1.236;2023-05-10T04:55:49;37.83;;;5.50;;
44276;SDS011;29973;43.742;1.236;2023-05-10T04:58:15;34.40;;;6.00;;
44276;SDS011;29973;43.742;1.236;2023-05-10T05:00:41;39.38;;;6.03;;
44276;SDS011;29973;43.742;1.236;2023-05-10T05:03:07;29.27;;;5.47;;
44276;SDS011;29973;43.742;1.236;2023-05-10T05:05:33;28.90;;;5.15;;
44276;SDS011;29973;43.742;1.236;2023-05-10T05:07:59;31.35;;;6.20;;
44276;SDS011;29973;43.742;1.236;2023-05-10T05:10:24;34.17;;;5.55;;
44276;SDS011;29973;43.742;1.236;2023-05-10T05:12:50;28.52;;;5.03;;
44276;SDS011;29973;43.742;1.236;2023-05-10T05:15:16;22.13;;;4.53;;
44276;SDS011;29973;43.742;1.236;2023-05-10T05:17:42;27.73;;;5.88;;
44276;SDS011;29973;43.742;1.236;2023-05-10T05:20:08;23.77;;;4.47;;
44276;SDS011;29973;43.742;1.236;2023-05-10T05:22:38;30.70;;;5.35;;
44276;SDS011;29973;43.742;1.236;2023-05-10T05:25:04;30.55;;;5.22;;
44276;SDS011;29973;43.742;1.236;2023-05-10T05:27:30;27.90;;;4.78;;
44276;SDS011;29973;43.742;1.236;2023-05-10T05:29:56;31.83;;;5.95;;
44276;SDS011;29973;43.742;1.236;2023-05-10T05:32:23;25.25;;;4.63;;
44276;SDS011;29973;43.742;1.236;2023-05-10T05:34:49;35.17;;;5.28;;
44276;SDS011;29973;43.742;1.236;2023-05-10T05:37:16;30.58;;;5.00;;
44276;SDS011;29973;43.742;1.236;2023-05-10T05:39:43;30.63;;;5.13;;
44276;SDS011;29973;43.742;1.236;2023-05-10T05:42:10;31.88;;;5.10;;
44276;SDS011;29973;43.742;1.236;2023-05-10T05:44:36;32.15;;;5.15;;
44276;SDS011;29973;43.742;1.236;2023-05-10T05:47:02;32.22;;;5.47;;
44276;SDS011;29973;43.742;1.236;2023-05-10T05:49:28;35.50;;;5.07;;
44276;SDS011;29973;43.742;1.236;2023-05-10T05:51:54;31.38;;;4.65;;
44276;SDS011;29973;43.742;1.236;2023-05-10T05:54:19;40.38;;;5.72;;
44276;SDS011;29973;43.742;1.236;2023-05-10T05:56:45;27.92;;;4.75;;
44276;SDS011;29973;43.742;1.236;2023-05-10T05:59:11;19.13;;;4.15;;
44276;SDS011;29973;43.742;1.236;2023-05-10T06:01:37;26.23;;;4.53;;
44276;SDS011;29973;43.742;1.236;2023-05-10T06:04:02;26.77;;;4.22;;
44276;SDS011;29973;43.742;1.236;2023-05-10T06:06:28;21.50;;;4.75;;
44276;SDS011;29973;43.742;1.236;2023-05-10T06:08:54;33.13;;;4.95;;
44276;SDS011;29973;43.742;1.236;2023-05-10T06:11:20;26.88;;;4.65;;
44276;SDS011;29973;43.742;1.236;2023-05-10T06:13:46;31.77;;;5.55;;
44276;SDS011;29973;43.742;1.236;2023-05-10T06:16:12;24.52;;;5.10;;
44276;SDS011;29973;43.742;1.236;2023-05-10T06:18:38;32.88;;;5.18;;
44276;SDS011;29973;43.742;1.236;2023-05-10T06:21:04;24.88;;;4.65;;
44276;SDS011;29973;43.742;1.236;2023-05-10T06:23:30;30.02;;;4.85;;
44276;SDS011;29973;43.742;1.236;2023-05-10T06:25:56;25.15;;;4.50;;
44276;SDS011;29973;43.742;1.236;2023-05-10T06:28:21;21.00;;;3.92;;
44276;SDS011;29973;43.742;1.236;2023-05-10T06:30:47;27.52;;;4.57;;
44276;SDS011;29973;43.742;1.236;2023-05-10T06:33:13;31.42;;;5.28;;
44276;SDS011;29973;43.742;1.236;2023-05-10T06:35:39;27.40;;;4.22;;
44276;SDS011;29973;43.742;1.236;2023-05-10T06:38:04;24.75;;;4.47;;
44276;SDS011;29973;43.742;1.236;2023-05-10T06:40:30;28.00;;;4.35;;
44276;SDS011;29973;43.742;1.236;2023-05-10T06:42:56;24.65;;;5.03;;
44276;SDS011;29973;43.742;1.236;2023-05-10T06:45:22;22.73;;;4.18;;
44276;SDS011;29973;43.742;1.236;2023-05-10T06:47:47;32.03;;;3.40;;
44276;SDS011;29973;43.742;1.236;2023-05-10T06:50:13;18.52;;;3.92;;
44276;SDS011;29973;43.742;1.236;2023-05-10T06:52:39;13.73;;;4.10;;
44276;SDS011;29973;43.742;1.236;2023-05-10T06:55:05;21.85;;;3.78;;
44276;SDS011;29973;43.742;1.236;2023-05-10T06:57:31;22.70;;;3.60;;
44276;SDS011;29973;43.742;1.236;2023-05-10T07:00:00;21.48;;;4.20;;
44276;SDS011;29973;43.742;1.236;2023-05-10T07:02:26;23.15;;;4.22;;
44276;SDS011;29973;43.742;1.236;2023-05-10T07:04:52;19.13;;;4.45;;
44276;SDS011;29973;43.742;1.236;2023-05-10T07:07:19;23.65;;;3.83;;
44276;SDS011;29973;43.742;1.236;2023-05-10T07:09:44;21.25;;;3.42;;
44276;SDS011;29973;43.742;1.236;2023-05-10T07:12:10;23.30;;;3.58;;
44276;SDS011;29973;43.742;1.236;2023-05-10T07:14:36;27.42;;;4.20;;
44276;SDS011;29973;43.742;1.236;2023-05-10T07:17:02;28.17;;;3.80;;
44276;SDS011;29973;43.742;1.236;2023-05-10T07:19:27;23.15;;;3.80;;
44276;SDS011;29973;43.742;1.236;2023-05-10T07:21:54;24.52;;;3.65;;
44276;SDS011;29973;43.742;1.236;2023-05-10T07:24:20;19.80;;;3.60;;
44276;SDS011;29973;43.742;1.236;2023-05-10T07:26:46;25.02;;;3.47;;
44276;SDS011;29973;43.742;1.236;2023-05-10T07:29:12;28.60;;;3.72;;
44276;SDS011;29973;43.742;1.236;2023-05-10T07:31:37;22.15;;;4.28;;
44276;SDS011;29973;43.742;1.236;2023-05-10T07:34:03;22.13;;;3.38;;
44276;SDS011;29973;43.742;1.236;2023-05-10T07:36:29;20.85;;;3.13;;
44276;SDS011;29973;43.742;1.236;2023-05-10T07:38:55;17.33;;;2.47;;
44276;SDS011;29973;43.742;1.236;2023-05-10T07:41:22;19.55;;;3.58;;
44276;SDS011;29973;43.742;1.236;2023-05-10T07:43:48;13.20;;;2.95;;
44276;SDS011;29973;43.742;1.236;2023-05-10T07:46:13;14.68;;;3.22;;
44276;SDS011;29973;43.742;1.236;2023-05-10T07:48:39;19.52;;;3.25;;
44276;SDS011;29973;43.742;1.236;2023-05-10T07:51:05;26.17;;;5.15;;
44276;SDS011;29973;43.742;1.236;2023-05-10T07:53:32;21.83;;;4.07;;
44276;SDS011;29973;43.742;1.236;2023-05-10T07:55:58;22.05;;;5.32;;
44276;SDS011;29973;43.742;1.236;2023-05-10T07:58:24;7.70;;;2.22;;
44276;SDS011;29973;43.742;1.236;2023-05-10T08:00:50;19.90;;;3.47;;
44276;SDS011;29973;43.742;1.236;2023-05-10T08:03:15;22.90;;;3.92;;
44276;SDS011;29973;43.742;1.236;2023-05-10T08:05:41;23.45;;;3.47;;
44276;SDS011;29973;43.742;1.236;2023-05-10T08:08:07;16.38;;;3.22;;
44276;SDS011;29973;43.742;1.236;2023-05-10T08:10:33;23.45;;;3.50;;
44276;SDS011;29973;43.742;1.236;2023-05-10T08:12:58;19.52;;;3.38;;
44276;SDS011;29973;43.742;1.236;2023-05-10T08:15:24;23.98;;;4.25;;
44276;SDS011;29973;43.742;1.236;2023-05-10T08:17:53;17.35;;;4.15;;
44276;SDS011;29973;43.742;1.236;2023-05-10T08:20:19;15.35;;;2.63;;
44276;SDS011;29973;43.742;1.236;2023-05-10T08:22:45;16.63;;;2.78;;
44276;SDS011;29973;43.742;1.236;2023-05-10T08:25:11;19.77;;;3.67;;
44276;SDS011;29973;43.742;1.236;2023-05-10T08:27:37;16.92;;;2.88;;
44276;SDS011;29973;43.742;1.236;2023-05-10T08:30:02;22.85;;;2.97;;
44276;SDS011;29973;43.742;1.236;2023-05-10T08:32:28;20.92;;;2.92;;
44276;SDS011;29973;43.742;1.236;2023-05-10T08:34:54;18.77;;;2.88;;
44276;SDS011;29973;43.742;1.236;2023-05-10T08:37:22;15.32;;;2.75;;
44276;SDS011;29973;43.742;1.236;2023-05-10T08:39:48;16.20;;;2.75;;
44276;SDS011;29973;43.742;1.236;2023-05-10T08:42:16;12.55;;;2.67;;
44276;SDS011;29973;43.742;1.236;2023-05-10T08:44:45;20.40;;;3.70;;
44276;SDS011;29973;43.742;1.236;2023-05-10T08:47:13;14.40;;;2.42;;
44276;SDS011;29973;43.742;1.236;2023-05-10T08:49:41;18.88;;;3.20;;
44276;SDS011;29973;43.742;1.236;2023-05-10T08:52:09;16.48;;;3.58;;
44276;SDS011;29973;43.742;1.236;2023-05-10T08:54:38;15.20;;;2.35;;
44276;SDS011;29973;43.742;1.236;2023-05-10T08:57:04;11.82;;;2.38;;
44276;SDS011;29973;43.742;1.236;2023-05-10T08:59:30;13.55;;;2.35;;
44276;SDS011;29973;43.742;1.236;2023-05-10T09:01:58;19.05;;;2.92;;
44276;SDS011;29973;43.742;1.236;2023-05-10T09:04:24;15.20;;;2.33;;
44276;SDS011;29973;43.742;1.236;2023-05-10T09:06:50;21.90;;;2.95;;
44276;SDS011;29973;43.742;1.236;2023-05-10T09:09:17;17.17;;;2.50;;
44276;SDS011;29973;43.742;1.236;2023-05-10T09:11:43;13.55;;;3.17;;
44276;SDS011;29973;43.742;1.236;2023-05-10T09:14:09;21.88;;;3.83;;
44276;SDS011;29973;43.742;1.236;2023-05-10T09:16:37;19.73;;;3.30;;
44276;SDS011;29973;43.742;1.236;2023-05-10T09:19:03;13.02;;;3.05;;
44276;SDS011;29973;43.742;1.236;2023-05-10T09:21:28;12.82;;;2.67;;
44276;SDS011;29973;43.742;1.236;2023-05-10T09:23:56;15.32;;;2.38;;
44276;SDS011;29973;43.742;1.236;2023-05-10T09:26:22;13.90;;;2.78;;
44276;SDS011;29973;43.742;1.236;2023-05-10T09:31:18;17.90;;;3.53;;
44276;SDS011;29973;43.742;1.236;2023-05-10T09:33:47;20.58;;;3.42;;
44276;SDS011;29973;43.742;1.236;2023-05-10T09:36:14;20.73;;;3.22;;
44276;SDS011;29973;43.742;1.236;2023-05-10T09:38:50;15.45;;;2.85;;
44276;SDS011;29973;43.742;1.236;2023-05-10T09:41:21;14.43;;;2.60;;
44276;SDS011;29973;43.742;1.236;2023-05-10T09:43:48;7.88;;;2.15;;
44276;SDS011;29973;43.742;1.236;2023-05-10T09:46:15;14.43;;;2.67;;
44276;SDS011;29973;43.742;1.236;2023-05-10T09:48:45;17.52;;;2.47;;
44276;SDS011;29973;43.742;1.236;2023-05-10T09:51:21;14.18;;;2.60;;
44276;SDS011;29973;43.742;1.236;2023-05-10T09:53:47;12.85;;;2.58;;
44276;SDS011;29973;43.742;1.236;2023-05-10T09:56:32;16.05;;;2.60;;
44276;SDS011;29973;43.742;1.236;2023-05-10T09:59:03;10.70;;;2.10;;
44276;SDS011;29973;43.742;1.236;2023-05-10T10:01:29;17.25;;;2.15;;
44276;SDS011;29973;43.742;1.236;2023-05-10T10:03:55;10.77;;;2.78;;
44276;SDS011;29973;43.742;1.236;2023-05-10T10:06:22;12.38;;;2.38;;
44276;SDS011;29973;43.742;1.236;2023-05-10T10:08:48;12.48;;;2.00;;
44276;SDS011;29973;43.742;1.236;2023-05-10T10:11:15;10.57;;;1.98;;
44276;SDS011;29973;43.742;1.236;2023-05-10T10:13:41;11.65;;;2.35;;
44276;SDS011;29973;43.742;1.236;2023-05-10T10:16:08;11.70;;;2.45;;
44276;SDS011;29973;43.742;1.236;2023-05-10T10:18:34;17.35;;;2.58;;
44276;SDS011;29973;43.742;1.236;2023-05-10T10:21:04;9.68;;;2.42;;
44276;SDS011;29973;43.742;1.236;2023-05-10T10:23:36;14.02;;;2.53;;
44276;SDS011;29973;43.742;1.236;2023-05-10T10:26:03;21.45;;;2.90;;
44276;SDS011;29973;43.742;1.236;2023-05-10T10:28:41;20.33;;;3.17;;
44276;SDS011;29973;43.742;1.236;2023-05-10T10:31:34;13.20;;;2.58;;
44276;SDS011;29973;43.742;1.236;2023-05-10T10:36:42;14.93;;;2.65;;
44276;SDS011;29973;43.742;1.236;2023-05-10T10:39:11;15.27;;;2.35;;
44276;SDS011;29973;43.742;1.236;2023-05-10T10:41:49;11.38;;;1.85;;
44276;SDS011;29973;43.742;1.236;2023-05-10T10:46:59;15.15;;;2.63;;
44276;SDS011;29973;43.742;1.236;2023-05-10T10:52:13;20.15;;;3.40;;
44276;SDS011;29973;43.742;1.236;2023-05-10T10:54:40;15.57;;;3.08;;
44276;SDS011;29973;43.742;1.236;2023-05-10T10:57:12;9.45;;;2.15;;
44276;SDS011;29973;43.742;1.236;2023-05-10T10:59:42;14.05;;;2.00;;
44276;SDS011;29973;43.742;1.236;2023-05-10T11:02:09;10.43;;;2.17;;
44276;SDS011;29973;43.742;1.236;2023-05-10T11:04:41;9.40;;;1.90;;
44276;SDS011;29973;43.742;1.236;2023-05-10T11:07:17;12.77;;;2.90;;
44276;SDS011;29973;43.742;1.236;2023-05-10T11:09:44;12.60;;;2.45;;
44276;SDS011;29973;43.742;1.236;2023-05-10T11:12:11;8.23;;;1.95;;
44276;SDS011;29973;43.742;1.236;2023-05-10T11:14:37;16.73;;;2.20;;
44276;SDS011;29973;43.742;1.236;2023-05-10T11:17:21;9.40;;;2.33;;
44276;SDS011;29973;43.742;1.236;2023-05-10T11:20:08;12.95;;;1.88;;
44276;SDS011;29973;43.742;1.236;2023-05-10T11:22:50;5.07;;;1.25;;
44276;SDS011;29973;43.742;1.236;2023-05-10T11:25:17;9.73;;;1.60;;
44276;SDS011;29973;43.742;1.236;2023-05-10T11:27:43;8.30;;;1.38;;
44276;SDS011;29973;43.742;1.236;2023-05-10T11:30:10;4.53;;;1.17;;
44276;SDS011;29973;43.742;1.236;2023-05-10T11:32:40;8.38;;;1.63;;
44276;SDS011;29973;43.742;1.236;2023-05-10T11:35:09;7.47;;;1.90;;
44276;SDS011;29973;43.742;1.236;2023-05-10T11:37:35;7.53;;;1.80;;
44276;SDS011;29973;43.742;1.236;2023-05-10T11:40:02;5.53;;;1.42;;
44276;SDS011;29973;43.742;1.236;2023-05-10T11:42:28;4.97;;;1.13;;
44276;SDS011;29973;43.742;1.236;2023-05-10T11:44:55;6.78;;;1.67;;
44276;SDS011;29973;43.742;1.236;2023-05-10T11:47:21;5.88;;;1.27;;
44276;SDS011;29973;43.742;1.236;2023-05-10T11:49:47;7.35;;;1.73;;
44276;SDS011;29973;43.742;1.236;2023-05-10T11:52:13;6.85;;;1.55;;
44276;SDS011;29973;43.742;1.236;2023-05-10T11:54:52;7.47;;;1.40;;
44276;SDS011;29973;43.742;1.236;2023-05-10T11:57:19;5.80;;;1.27;;
44276;SDS011;29973;43.742;1.236;2023-05-10T11:59:46;5.05;;;1.40;;
44276;SDS011;29973;43.742;1.236;2023-05-10T12:02:13;7.47;;;1.30;;
44276;SDS011;29973;43.742;1.236;2023-05-10T12:04:39;7.47;;;1.70;;
44276;SDS011;29973;43.742;1.236;2023-05-10T12:07:05;3.95;;;1.33;;
44276;SDS011;29973;43.742;1.236;2023-05-10T12:09:31;6.72;;;1.30;;
44276;SDS011;29973;43.742;1.236;2023-05-10T12:11:56;3.75;;;1.55;;
44276;SDS011;29973;43.742;1.236;2023-05-10T12:14:22;5.68;;;1.48;;
44276;SDS011;29973;43.742;1.236;2023-05-10T12:16:49;6.35;;;1.40;;
44276;SDS011;29973;43.742;1.236;2023-05-10T12:19:18;10.95;;;1.58;;
44276;SDS011;29973;43.742;1.236;2023-05-10T12:21:47;5.75;;;1.55;;
44276;SDS011;29973;43.742;1.236;2023-05-10T12:24:13;7.05;;;1.20;;
44276;SDS011;29973;43.742;1.236;2023-05-10T12:26:42;4.32;;;1.25;;
44276;SDS011;29973;43.742;1.236;2023-05-10T12:29:13;6.45;;;1.63;;
44276;SDS011;29973;43.742;1.236;2023-05-10T12:34:26;6.13;;;1.30;;
44276;SDS011;29973;43.742;1.236;2023-05-10T12:36:56;4.80;;;1.30;;
44276;SDS011;29973;43.742;1.236;2023-05-10T12:39:23;4.78;;;1.45;;
44276;SDS011;29973;43.742;1.236;2023-05-10T12:41:48;8.07;;;1.50;;
44276;SDS011;29973;43.742;1.236;2023-05-10T12:44:14;4.00;;;1.27;;
44276;SDS011;29973;43.742;1.236;2023-05-10T12:46:40;5.38;;;1.33;;
44276;SDS011;29973;43.742;1.236;2023-05-10T12:49:06;4.22;;;1.70;;
44276;SDS011;29973;43.742;1.236;2023-05-10T12:51:31;7.07;;;1.85;;
44276;SDS011;29973;43.742;1.236;2023-05-10T12:53:57;12.90;;;1.38;;
44276;SDS011;29973;43.742;1.236;2023-05-10T12:56:23;6.72;;;1.52;;
44276;SDS011;29973;43.742;1.236;2023-05-10T12:58:48;4.57;;;1.58;;
44276;SDS011;29973;43.742;1.236;2023-05-10T13:01:14;5.72;;;1.38;;
44276;SDS011;29973;43.742;1.236;2023-05-10T13:03:40;6.32;;;1.58;;
44276;SDS011;29973;43.742;1.236;2023-05-10T13:06:05;6.05;;;1.30;;
44276;SDS011;29973;43.742;1.236;2023-05-10T13:08:31;6.57;;;1.30;;
44276;SDS011;29973;43.742;1.236;2023-05-10T13:11:01;7.80;;;1.55;;
44276;SDS011;29973;43.742;1.236;2023-05-10T13:13:28;5.45;;;1.90;;
44276;SDS011;29973;43.742;1.236;2023-05-10T13:15:54;6.82;;;1.63;;
44276;SDS011;29973;43.742;1.236;2023-05-10T13:18:19;4.95;;;1.50;;
44276;SDS011;29973;43.742;1.236;2023-05-10T13:20:45;11.00;;;1.90;;
44276;SDS011;29973;43.742;1.236;2023-05-10T13:23:11;6.32;;;1.48;;
44276;SDS011;29973;43.742;1.236;2023-05-10T13:25:36;11.50;;;1.83;;
44276;SDS011;29973;43.742;1.236;2023-05-10T13:28:05;11.82;;;1.92;;
44276;SDS011;29973;43.742;1.236;2023-05-10T13:30:30;7.53;;;1.50;;
44276;SDS011;29973;43.742;1.236;2023-05-10T13:32:56;9.68;;;1.92;;
44276;SDS011;29973;43.742;1.236;2023-05-10T13:35:22;11.90;;;1.95;;
44276;SDS011;29973;43.742;1.236;2023-05-10T13:37:47;11.63;;;2.20;;
44276;SDS011;29973;43.742;1.236;2023-05-10T13:40:13;9.07;;;1.88;;
44276;SDS011;29973;43.742;1.236;2023-05-10T13:42:40;6.90;;;1.95;;
44276;SDS011;29973;43.742;1.236;2023-05-10T13:45:06;11.60;;;2.33;;
44276;SDS011;29973;43.742;1.236;2023-05-10T13:47:32;10.13;;;2.47;;
44276;SDS011;29973;43.742;1.236;2023-05-10T13:49:58;15.55;;;2.47;;
44276;SDS011;29973;43.742;1.236;2023-05-10T13:52:23;13.65;;;2.47;;
44276;SDS011;29973;43.742;1.236;2023-05-10T13:54:49;8.18;;;2.00;;
44276;SDS011;29973;43.742;1.236;2023-05-10T13:57:17;13.50;;;2.50;;
44276;SDS011;29973;43.742;1.236;2023-05-10T13:59:43;10.90;;;2.88;;
44276;SDS011;29973;43.742;1.236;2023-05-10T14:02:09;9.35;;;2.60;;
44276;SDS011;29973;43.742;1.236;2023-05-10T14:04:37;9.85;;;1.83;;
44276;SDS011;29973;43.742;1.236;2023-05-10T14:07:03;8.00;;;2.10;;
44276;SDS011;29973;43.742;1.236;2023-05-10T14:09:29;9.98;;;1.75;;
44276;SDS011;29973;43.742;1.236;2023-05-10T14:11:55;10.30;;;1.60;;
44276;SDS011;29973;43.742;1.236;2023-05-10T14:14:21;7.13;;;1.30;;
44276;SDS011;29973;43.742;1.236;2023-05-10T14:16:47;7.85;;;1.92;;
44276;SDS011;29973;43.742;1.236;2023-05-10T14:19:12;8.43;;;1.95;;
44276;SDS011;29973;43.742;1.236;2023-05-10T14:21:38;9.75;;;1.63;;
44276;SDS011;29973;43.742;1.236;2023-05-10T14:24:04;7.43;;;1.70;;
44276;SDS011;29973;43.742;1.236;2023-05-10T14:26:31;7.80;;;2.15;;
44276;SDS011;29973;43.742;1.236;2023-05-10T14:28:57;11.55;;;2.22;;
44276;SDS011;29973;43.742;1.236;2023-05-10T14:31:23;9.10;;;1.65;;
44276;SDS011;29973;43.742;1.236;2023-05-10T14:33:50;10.48;;;1.92;;
44276;SDS011;29973;43.742;1.236;2023-05-10T14:36:16;11.80;;;1.83;;
44276;SDS011;29973;43.742;1.236;2023-05-10T14:38:43;6.90;;;1.52;;
44276;SDS011;29973;43.742;1.236;2023-05-10T14:41:08;6.55;;;1.77;;
44276;SDS011;29973;43.742;1.236;2023-05-10T14:43:38;4.73;;;1.53;;
44276;SDS011;29973;43.742;1.236;2023-05-10T14:46:04;8.10;;;2.33;;
44276;SDS011;29973;43.742;1.236;2023-05-10T14:48:30;5.70;;;1.98;;
44276;SDS011;29973;43.742;1.236;2023-05-10T14:50:56;7.22;;;1.52;;
44276;SDS011;29973;43.742;1.236;2023-05-10T14:53:22;8.18;;;1.83;;
44276;SDS011;29973;43.742;1.236;2023-05-10T14:55:47;5.78;;;1.40;;
44276;SDS011;29973;43.742;1.236;2023-05-10T14:58:13;7.03;;;1.20;;
44276;SDS011;29973;43.742;1.236;2023-05-10T15:00:40;5.82;;;1.20;;
44276;SDS011;29973;43.742;1.236;2023-05-10T15:03:06;11.50;;;1.90;;
44276;SDS011;29973;43.742;1.236;2023-05-10T15:05:31;4.53;;;1.05;;
44276;SDS011;29973;43.742;1.236;2023-05-10T15:07:57;4.55;;;1.73;;
44276;SDS011;29973;43.742;1.236;2023-05-10T15:10:23;9.05;;;1.88;;
44276;SDS011;29973;43.742;1.236;2023-05-10T15:12:49;3.70;;;1.05;;
44276;SDS011;29973;43.742;1.236;2023-05-10T15:15:15;6.65;;;1.48;;